Latest Coastal Weather Observations for South Johnstone

IDQ60701

Issued at 4:32 pm EST Friday 27 May 2016 (issued every 10 minutes, with the page automatically refreshed every 10 minutes)

About coastal observations | Map of coastal stations | Coastal observations for QLD | Marine services | Other Formats
Station Details ID: 032037 Name: SOUTH JOHNSTONE EXP STN Lat: -17.61 Lon: 146.00 Height: 18.3 m
Data from the previous 72 hours. | See also: Recent months at South Johnstone
Date/Time
EST
Temp

°C
Wind Pressure Rain
since 9am
mm
Weather Cloud Vis
km
Sea
Height
m
Swell
Dir
 
Speed
knots
Gust
knots
hPa Trend Height
m
Period
s
Dir
27/04:30pm 28.6 NE 5 7 1011.3 - 0.0 - - - - - - -
27/04:00pm 28.9 ENE 5 7 1011.2 - 0.0 - - - - - - -
27/03:30pm 29.1 ENE 5 9 1011.2 - 0.0 - - - - - - -
27/03:00pm 29.5 NE 6 8 1011.1 - 0.0 - - - - - - -
27/02:30pm 29.8 NE 5 7 1011.4 - 0.0 - - - - - - -
27/02:00pm 29.9 NE 5 7 1011.8 - 0.0 - - - - - - -
27/01:30pm 30.1 NE 5 7 1012.2 - 0.0 - - - - - - -
27/01:00pm 30.1 ENE 5 8 1012.6 - 0.0 - - - - - - -
27/12:30pm 30.2 ESE 3 6 1013.1 - 0.0 - - - - - - -
27/12:00pm 30.1 N 1 5 1013.5 - 0.0 - - - - - - -
27/11:30am 29.7 NNE 1 5 1014.1 - 0.0 - - - - - - -
27/11:00am 29.5 CALM 0 0 1014.6 - 0.0 - - - - - - -
27/10:30am 28.6 N 1 4 1015.0 - 0.0 - - - - - - -
27/10:00am 28.0 CALM 0 0 1015.3 - 0.0 - - - - - - -
27/09:30am 27.0 CALM 0 0 1015.4 - 0.0 - - - - - - -
27/09:00am 25.8 CALM 0 0 1015.5 - 0.0 - - - - - - -
27/08:30am 23.9 CALM 0 1 1015.6 - 0.0 - - - - - - -
27/08:00am 22.2 CALM 0 0 1015.3 - 0.0 - - - - - - -
27/07:30am 20.6 WNW 1 4 1015.1 - 0.0 - - - - - - -
27/07:00am 19.8 CALM 0 0 1014.7 - 0.0 - - - - - - -
27/06:30am 19.8 CALM 0 4 1014.6 - 0.0 - - - - - - -
27/06:00am 19.8 SW 2 5 1014.4 - 0.0 - - - - - - -
27/05:30am 19.7 SW 3 4 1014.3 - 0.0 - - - - - - -
27/05:00am 19.9 W 2 4 1014.1 - 0.0 - - - - - - -
27/04:30am 19.8 WNW 2 5 1014.0 - 0.0 - - - - - - -
27/04:00am 20.0 CALM 0 0 1014.0 - 0.0 - - - - - - -
27/03:30am 20.1 CALM 0 0 1014.0 - 0.0 - - - - - - -
27/03:00am 20.1 CALM 0 0 1013.8 - 0.0 - - - - - - -
27/02:30am 20.2 CALM 0 0 1014.1 - 0.0 - - - - - - -
27/02:00am 20.4 W 3 5 1014.0 - 0.0 - - - - - - -
27/01:30am 20.5 W 4 7 1014.2 - 0.0 - - - - - - -
27/01:00am 20.6 CALM 0 4 1014.3 - 0.0 - - - - - - -
27/12:30am 20.6 W 1 3 1014.4 - 0.0 - - - - - - -
27/12:00am 20.8 W 3 5 1014.4 - 0.0 - - - - - - -
 
Date/Time
EST
Temp

°C
Wind Pressure Rain
since 9am
mm
Weather Cloud Vis
km
Sea
Height
m
Swell
Dir
 
Speed
knots
Gust
knots
hPa Trend Height
m
Period
s
Dir
26/11:30pm 20.9 W 1 4 1014.6 - 0.0 - - - - - - -
26/11:00pm 21.0 CALM 0 3 1014.8 - 0.0 - - - - - - -
26/10:30pm 21.1 W 2 5 1014.8 - 0.0 - - - - - - -
26/10:00pm 21.3 W 5 7 1014.7 - 0.0 - - - - - - -
26/09:30pm 21.4 W 4 6 1014.9 - 0.0 - - - - - - -
26/09:00pm 21.7 W 4 6 1014.8 - 0.0 - - - - - - -
26/08:30pm 21.8 W 3 5 1015.0 - 0.0 - - - - - - -
26/08:00pm 22.3 WSW 3 5 1014.9 - 0.0 - - - - - - -
26/07:30pm 22.7 WSW 3 6 1014.6 - 0.0 - - - - - - -
26/07:00pm 22.8 CALM 0 0 1014.3 - 0.0 - - - - - - -
26/06:30pm 23.5 CALM 0 0 1013.8 - 0.0 - - - - - - -
26/06:00pm 24.2 CALM 0 0 1013.4 - 0.0 - - - - - - -
26/05:30pm 25.3 ENE 2 4 1013.4 - 0.0 - - - - - - -
26/05:00pm 25.8 E 4 7 1013.2 - 0.0 - - - - - - -
26/04:30pm 26.6 ENE 4 7 1013.4 - 0.0 - - - - - - -
26/04:00pm 27.2 E 4 7 1013.4 - 0.0 - - - - - - -
26/03:30pm 27.7 E 4 7 1013.4 - 0.0 - - - - - - -
26/03:00pm 28.0 E 6 9 1013.6 - 0.0 - - - - - - -
26/02:30pm 28.3 ESE 5 7 1013.9 - 0.0 - - - - - - -
26/02:00pm 27.5 E 5 7 1014.1 - 0.0 - - - - - - -
26/01:30pm 28.2 ESE 3 6 1014.4 - 0.0 - - - - - - -
26/01:00pm 27.9 SSE 5 7 1014.9 - 0.0 - - - - - - -
26/12:30pm 27.8 SSW 4 8 1015.2 - 0.0 - - - - - - -
26/12:00pm 28.7 SE 4 7 1015.4 - 0.0 - - - - - - -
26/11:30am 28.2 CALM 0 5 1016.0 - 0.0 - - - - - - -
26/11:00am 27.1 SSE 5 8 1016.6 - 0.0 - - - - - - -
26/10:30am 27.6 W 1 4 1016.9 - 0.0 - - - - - - -
26/10:00am 26.3 S 1 4 1017.1 - 0.0 - - - - - - -
26/09:30am 27.1 SW 1 4 1017.2 - 0.0 - - - - - - -
26/09:00am 25.8 SW 1 4 1017.1 - 0.2 - - - - - - -
26/08:30am 24.8 CALM 0 3 1017.0 - 0.2 - - - - - - -
26/08:00am 23.0 CALM 0 1 1016.7 - 0.2 - - - - - - -
26/07:30am 22.1 WNW 1 4 1016.5 - 0.2 - - - - - - -
26/07:00am 21.6 CALM 0 0 1016.2 - 0.2 - - - - - - -
26/06:30am 21.4 CALM 0 0 1015.7 - 0.2 - - - - - - -
26/06:00am 21.5 CALM 0 2 1015.4 - 0.2 - - - - - - -
26/05:30am 21.3 CALM 0 0 1015.1 - 0.2 - - - - - - -
26/05:00am 21.4 CALM 0 0 1015.1 - 0.2 - - - - - - -
26/04:30am 21.6 W 2 4 1015.0 - 0.2 - - - - - - -
26/04:00am 21.6 W 2 5 1014.9 - 0.2 - - - - - - -
26/03:30am 21.5 CALM 0 0 1015.0 - 0.2 - - - - - - -
26/03:00am 21.4 WSW 3 5 1015.0 - 0.2 - - - - - - -
26/02:30am 21.4 SW 1 5 1015.2 - 0.2 - - - - - - -
26/02:00am 21.3 WSW 5 6 1015.5 - 0.2 - - - - - - -
26/01:30am 21.7 CALM 0 0 1015.7 - 0.2 - - - - - - -
26/01:00am 21.7 CALM 0 0 1016.2 - 0.2 - - - - - - -
26/12:30am 22.0 CALM 0 1 1016.2 - 0.2 - - - - - - -
26/12:00am 22.2 CALM 0 0 1016.2 - 0.2 - - - - - - -
 
Date/Time
EST
Temp

°C
Wind Pressure Rain
since 9am
mm
Weather Cloud Vis
km
Sea
Height
m
Swell
Dir
 
Speed
knots
Gust
knots
hPa Trend Height
m
Period
s
Dir
25/11:30pm 22.3 CALM 0 0 1016.4 - 0.2 - - - - - - -
25/11:00pm 22.5 CALM 0 3 1016.7 - 0.2 - - - - - - -
25/10:30pm 22.6 CALM 0 4 1016.8 - 0.2 - - - - - - -
25/10:00pm 22.7 CALM 0 0 1016.6 - 0.2 - - - - - - -
25/09:30pm 22.8 W 1 4 1016.6 - 0.2 - - - - - - -
25/09:00pm 23.1 W 1 5 1016.4 - 0.2 - - - - - - -
25/08:30pm 23.3 CALM 0 0 1016.3 - 0.2 - - - - - - -
25/08:00pm 23.4 CALM 0 0 1016.2 - 0.2 - - - - - - -
25/07:30pm 23.5 CALM 0 0 1015.9 - 0.2 - - - - - - -
25/07:00pm 23.7 CALM 0 0 1015.4 - 0.2 - - - - - - -
25/06:30pm 23.8 CALM 0 0 1015.0 - 0.2 - - - - - - -
25/06:00pm 24.2 CALM 0 0 1014.6 - 0.2 - - - - - - -
25/05:30pm 24.7 SE 2 4 1014.5 - 0.2 - - - - - - -
25/05:00pm 25.6 ESE 6 9 1014.2 - 0.2 - - - - - - -
25/04:30pm 26.1 SE 6 9 1013.9 - 0.2 - - - - - - -
25/04:00pm 26.6 ESE 6 10 1013.9 - 0.2 - - - - - - -
25/03:30pm 27.4 ESE 6 11 1013.7 - 0.2 - - - - - - -
25/03:00pm 27.5 SE 5 10 1013.8 - 0.2 - - - - - - -
25/02:30pm 27.7 SE 6 9 1013.9 - 0.2 - - - - - - -
25/02:00pm 27.5 SE 6 11 1014.1 - 0.2 - - - - - - -
25/01:30pm 27.6 SSE 7 10 1014.3 - 0.0 - - - - - - -
25/01:00pm 27.1 SSE 6 9 1014.8 - 0.0 - - - - - - -
25/12:30pm 27.7 SSE 7 11 1015.5 - 0.0 - - - - - - -
25/12:00pm 26.4 S 6 9 1015.8 - 0.0 - - - - - - -
25/11:30am 26.4 SSE 4 7 1016.4 - 0.0 - - - - - - -
25/11:00am 26.8 SSE 4 7 1016.7 - 0.0 - - - - - - -
25/10:30am 25.9 SE 4 7 1016.8 - 0.0 - - - - - - -
25/10:00am 24.6 W 1 4 1017.1 - 0.0 - - - - - - -
25/09:30am 23.0 NNW 1 4 1017.0 - 0.0 - - - - - - -
25/09:00am 22.2 SSE 3 5 1016.7 - 1.0 - - - - - - -
25/08:30am 21.8 W 3 6 1016.6 - 1.0 - - - - - - -
25/08:00am 21.5 WSW 4 6 1016.5 - 1.0 - - - - - - -
25/07:30am 21.2 CALM 0 2 1015.6 - 1.0 - - - - - - -
25/07:00am 20.9 CALM 0 0 1015.6 - 1.0 - - - - - - -
25/06:30am 20.8 CALM 0 3 1015.8 - 1.0 - - - - - - -
25/06:00am 20.9 CALM 0 0 1014.9 - 1.0 - - - - - - -
25/05:30am 20.9 CALM 0 0 1014.7 - 1.0 - - - - - - -
25/05:00am 21.0 WSW 1 3 1014.6 - 1.0 - - - - - - -
25/04:30am 21.1 CALM 0 2 1014.7 - 1.0 - - - - - - -
25/04:00am 21.3 W 2 5 1014.5 - 1.0 - - - - - - -
25/03:30am 21.1 CALM 0 0 1015.4 - 1.0 - - - - - - -
25/03:00am 21.3 CALM 0 0 1015.2 - 1.0 - - - - - - -
25/02:30am 21.4 W 2 4 1015.5 - 1.0 - - - - - - -
25/02:00am 21.6 CALM 0 0 1016.0 - 1.0 - - - - - - -
25/01:30am 21.9 CALM 0 0 1016.7 - 1.0 - - - - - - -
25/01:00am 22.0 CALM 0 0 1016.7 - 1.0 - - - - - - -
25/12:30am 22.1 CALM 0 0 1016.9 - 1.0 - - - - - - -
25/12:00am 22.0 CALM 0 0 1016.8 - 1.0 - - - - - - -
 
Date/Time
EST
Temp

°C
Wind Pressure Rain
since 9am
mm
Weather Cloud Vis
km
Sea
Height
m
Swell
Dir
 
Speed
knots
Gust
knots
hPa Trend Height
m
Period
s
Dir
24/11:30pm 22.0 WSW 3 4 1017.1 - 1.0 - - - - - - -
24/11:00pm 22.0 W 1 4 1017.4 - 1.0 - - - - - - -
24/10:30pm 22.2 W 3 7 1016.9 - 1.0 - - - - - - -
24/10:00pm 22.2 WSW 4 6 1017.1 - 1.0 - - - - - - -
24/09:30pm 22.0 SW 6 7 1017.2 - 1.0 - - - - - - -
24/09:00pm 21.9 CALM 0 6 1017.3 - 1.0 - - - - - - -
24/08:30pm 22.0 WSW 2 5 1017.0 - 1.0 - - - - - - -
24/08:00pm 22.0 WSW 4 6 1017.0 - 1.0 - - - - - - -
24/07:30pm 22.1 WSW 1 4 1016.8 - 1.0 - - - - - - -
24/07:00pm 22.1 CALM 0 3 1016.4 - 0.8 - - - - - - -
24/06:30pm 22.0 ESE 1 3 1016.1 - 0.8 - - - - - - -
24/06:00pm 22.6 ESE 5 8 1016.0 - 0.0 - - - - - - -
24/05:30pm 23.4 E 5 7 1015.7 - 0.0 - - - - - - -
24/05:00pm 24.4 ESE 5 8 1015.3 - 0.0 - - - - - - -

Other Formats:

Comma delimited format used in spreadsheet applications
http://www.bom.gov.au/fwo/IDQ60701/IDQ60701.95292.axf

JavaScript Object Notation format (JSON) in row-major order
http://www.bom.gov.au/fwo/IDQ60701/IDQ60701.95292.json